Terminal Aerodrome Forecast
Issued by NWS

Home | Current Version | Previous Version | Text Only | Print | Product List | Glossary On
Versions: 1 2 3 4 5 6 7 8 9 10 11 12 13 14 15
347
FTUS43 KILX 240219 AAA
TAFCMI
TAF AMD
KCMI 240219Z 2402/2424 15015G22KT P6SM SCT090 WS018/20055KT
     FM241400 18014G24KT P6SM SCT050 BKN250
     FM241700 19017G27KT P6SM OVC025=

USA.gov is the U.S. government's official web portal to all federal, state and local government web resources and services.